sensor_id;sensor_type;location;lat;lon;timestamp;pressure;altitude;pressure_sealevel;temperature;humidity
76257;BME280;65074;50.436;8.672;2022-11-15T00:01:47;99119.06;;;7.88;100.00
76257;BME280;65074;50.436;8.672;2022-11-15T00:04:31;99124.47;;;7.77;100.00
76257;BME280;65074;50.436;8.672;2022-11-15T00:07:15;99123.44;;;7.66;100.00
76257;BME280;65074;50.436;8.672;2022-11-15T00:10:03;99122.03;;;7.64;100.00
76257;BME280;65074;50.436;8.672;2022-11-15T00:12:47;99117.97;;;7.61;100.00
76257;BME280;65074;50.436;8.672;2022-11-15T00:15:34;99110.72;;;7.85;100.00
76257;BME280;65074;50.436;8.672;2022-11-15T00:18:18;99110.97;;;8.00;100.00
76257;BME280;65074;50.436;8.672;2022-11-15T00:21:05;99103.66;;;7.96;100.00
76257;BME280;65074;50.436;8.672;2022-11-15T00:23:49;99108.31;;;8.00;100.00
76257;BME280;65074;50.436;8.672;2022-11-15T00:26:33;99108.91;;;8.02;100.00
76257;BME280;65074;50.436;8.672;2022-11-15T00:29:17;99105.41;;;8.02;100.00
76257;BME280;65074;50.436;8.672;2022-11-15T00:32:01;99109.31;;;8.11;100.00
76257;BME280;65074;50.436;8.672;2022-11-15T00:34:45;99108.03;;;8.13;100.00
76257;BME280;65074;50.436;8.672;2022-11-15T00:37:31;99097.63;;;8.28;100.00
76257;BME280;65074;50.436;8.672;2022-11-15T00:40:16;99093.09;;;8.45;100.00
76257;BME280;65074;50.436;8.672;2022-11-15T00:42:59;99086.91;;;8.45;100.00
76257;BME280;65074;50.436;8.672;2022-11-15T00:45:43;99090.06;;;8.42;100.00
76257;BME280;65074;50.436;8.672;2022-11-15T00:48:27;99086.34;;;8.60;100.00
76257;BME280;65074;50.436;8.672;2022-11-15T00:51:12;99090.59;;;8.72;100.00
76257;BME280;65074;50.436;8.672;2022-11-15T00:53:56;99083.78;;;8.81;100.00
76257;BME280;65074;50.436;8.672;2022-11-15T00:56:40;99078.72;;;8.85;100.00
76257;BME280;65074;50.436;8.672;2022-11-15T00:59:23;99080.81;;;8.99;100.00
76257;BME280;65074;50.436;8.672;2022-11-15T01:02:07;99069.88;;;9.23;100.00
76257;BME280;65074;50.436;8.672;2022-11-15T01:04:51;99066.78;;;9.31;99.78
76257;BME280;65074;50.436;8.672;2022-11-15T01:07:36;99063.91;;;9.37;100.00
76257;BME280;65074;50.436;8.672;2022-11-15T01:10:19;99065.72;;;9.32;100.00
76257;BME280;65074;50.436;8.672;2022-11-15T01:13:03;99068.72;;;9.35;100.00
76257;BME280;65074;50.436;8.672;2022-11-15T01:15:47;99072.53;;;9.39;99.83
76257;BME280;65074;50.436;8.672;2022-11-15T01:18:31;99062.91;;;9.43;99.72
76257;BME280;65074;50.436;8.672;2022-11-15T01:21:18;99064.94;;;9.53;99.38
76257;BME280;65074;50.436;8.672;2022-11-15T01:24:02;99073.41;;;9.45;99.93
76257;BME280;65074;50.436;8.672;2022-11-15T01:26:46;99072.91;;;9.48;99.35
76257;BME280;65074;50.436;8.672;2022-11-15T01:29:29;99075.97;;;9.56;99.05
76257;BME280;65074;50.436;8.672;2022-11-15T01:32:13;99071.53;;;9.67;98.27
76257;BME280;65074;50.436;8.672;2022-11-15T01:34:57;99065.16;;;9.73;98.14
76257;BME280;65074;50.436;8.672;2022-11-15T01:37:41;99070.69;;;9.88;97.10
76257;BME280;65074;50.436;8.672;2022-11-15T01:40:25;99072.28;;;9.84;97.64
76257;BME280;65074;50.436;8.672;2022-11-15T01:43:27;99070.28;;;9.74;97.82
76257;BME280;65074;50.436;8.672;2022-11-15T01:46:30;99064.97;;;9.79;97.35
76257;BME280;65074;50.436;8.672;2022-11-15T01:49:20;99062.78;;;9.76;97.16
76257;BME280;65074;50.436;8.672;2022-11-15T01:52:09;99057.09;;;9.73;97.55
76257;BME280;65074;50.436;8.672;2022-11-15T01:55:16;99053.84;;;9.71;97.55
76257;BME280;65074;50.436;8.672;2022-11-15T01:58:04;99055.16;;;9.68;97.40
76257;BME280;65074;50.436;8.672;2022-11-15T02:00:48;99055.66;;;9.65;97.61
76257;BME280;65074;50.436;8.672;2022-11-15T02:03:55;99054.94;;;9.70;97.13
76257;BME280;65074;50.436;8.672;2022-11-15T02:06:41;99040.78;;;9.79;96.34
76257;BME280;65074;50.436;8.672;2022-11-15T02:09:26;99036.19;;;9.75;96.21
76257;BME280;65074;50.436;8.672;2022-11-15T02:12:14;99033.50;;;9.75;96.48
76257;BME280;65074;50.436;8.672;2022-11-15T02:14:59;99039.16;;;9.78;96.44
76257;BME280;65074;50.436;8.672;2022-11-15T02:17:56;99029.78;;;9.81;96.47
76257;BME280;65074;50.436;8.672;2022-11-15T02:29:28;99030.94;;;9.90;95.56
76257;BME280;65074;50.436;8.672;2022-11-15T02:32:32;99019.47;;;9.95;95.71
76257;BME280;65074;50.436;8.672;2022-11-15T02:35:58;99020.69;;;9.82;95.93
76257;BME280;65074;50.436;8.672;2022-11-15T02:38:54;99023.41;;;9.87;96.07
76257;BME280;65074;50.436;8.672;2022-11-15T02:41:57;99015.91;;;9.89;95.94
76257;BME280;65074;50.436;8.672;2022-11-15T02:44:45;99005.13;;;9.84;96.38
76257;BME280;65074;50.436;8.672;2022-11-15T02:47:32;99011.25;;;9.79;96.49
76257;BME280;65074;50.436;8.672;2022-11-15T02:50:21;99013.06;;;9.74;96.50
76257;BME280;65074;50.436;8.672;2022-11-15T02:53:07;99010.06;;;9.70;96.97
76257;BME280;65074;50.436;8.672;2022-11-15T02:55:53;99013.28;;;9.67;96.92
76257;BME280;65074;50.436;8.672;2022-11-15T02:59:10;99001.25;;;9.75;96.63
76257;BME280;65074;50.436;8.672;2022-11-15T03:05:19;99009.56;;;9.73;96.41
76257;BME280;65074;50.436;8.672;2022-11-15T03:14:21;99009.75;;;9.67;96.59
76257;BME280;65074;50.436;8.672;2022-11-15T03:17:16;99005.88;;;9.79;96.00
76257;BME280;65074;50.436;8.672;2022-11-15T03:20:04;99010.75;;;9.82;95.62
76257;BME280;65074;50.436;8.672;2022-11-15T03:22:50;99005.44;;;9.66;96.59
76257;BME280;65074;50.436;8.672;2022-11-15T03:25:38;98994.41;;;9.62;96.45
76257;BME280;65074;50.436;8.672;2022-11-15T03:28:30;98994.09;;;9.59;96.63
76257;BME280;65074;50.436;8.672;2022-11-15T03:31:18;98997.03;;;9.57;96.75
76257;BME280;65074;50.436;8.672;2022-11-15T03:34:32;98996.84;;;9.64;95.97
76257;BME280;65074;50.436;8.672;2022-11-15T03:37:21;99005.66;;;9.59;96.69
76257;BME280;65074;50.436;8.672;2022-11-15T03:40:07;99006.63;;;9.53;97.29
76257;BME280;65074;50.436;8.672;2022-11-15T03:43:15;99005.84;;;9.53;97.35
76257;BME280;65074;50.436;8.672;2022-11-15T03:46:23;99000.44;;;9.48;97.93
76257;BME280;65074;50.436;8.672;2022-11-15T03:49:13;99008.72;;;9.46;97.95
76257;BME280;65074;50.436;8.672;2022-11-15T03:52:03;99007.88;;;9.46;98.13
76257;BME280;65074;50.436;8.672;2022-11-15T03:54:53;99009.47;;;9.42;98.27
76257;BME280;65074;50.436;8.672;2022-11-15T03:57:37;99010.22;;;9.37;98.42
76257;BME280;65074;50.436;8.672;2022-11-15T04:00:21;99004.28;;;9.35;98.82
76257;BME280;65074;50.436;8.672;2022-11-15T04:03:05;99004.78;;;9.32;98.94
76257;BME280;65074;50.436;8.672;2022-11-15T04:05:50;99007.97;;;9.29;99.47
76257;BME280;65074;50.436;8.672;2022-11-15T04:08:34;99006.38;;;9.28;99.80
76257;BME280;65074;50.436;8.672;2022-11-15T04:11:18;99004.91;;;9.21;99.71
76257;BME280;65074;50.436;8.672;2022-11-15T04:14:02;99002.34;;;9.09;100.00
76257;BME280;65074;50.436;8.672;2022-11-15T04:16:46;99013.25;;;9.02;100.00
76257;BME280;65074;50.436;8.672;2022-11-15T04:19:30;99000.03;;;8.96;100.00
76257;BME280;65074;50.436;8.672;2022-11-15T04:22:32;99010.75;;;8.96;100.00
76257;BME280;65074;50.436;8.672;2022-11-15T04:25:35;99009.88;;;8.90;100.00
76257;BME280;65074;50.436;8.672;2022-11-15T04:28:19;99004.28;;;8.75;100.00
76257;BME280;65074;50.436;8.672;2022-11-15T04:31:04;98999.81;;;8.64;100.00
76257;BME280;65074;50.436;8.672;2022-11-15T04:33:47;98999.69;;;8.54;100.00
76257;BME280;65074;50.436;8.672;2022-11-15T04:36:31;99007.97;;;8.52;100.00
76257;BME280;65074;50.436;8.672;2022-11-15T04:39:34;99004.78;;;8.56;100.00
76257;BME280;65074;50.436;8.672;2022-11-15T04:42:18;98991.31;;;8.50;100.00
76257;BME280;65074;50.436;8.672;2022-11-15T04:45:02;98994.88;;;8.39;100.00
76257;BME280;65074;50.436;8.672;2022-11-15T04:47:47;98981.91;;;8.31;100.00
76257;BME280;65074;50.436;8.672;2022-11-15T04:50:30;98977.09;;;8.17;100.00
76257;BME280;65074;50.436;8.672;2022-11-15T04:53:14;98978.44;;;8.03;100.00
76257;BME280;65074;50.436;8.672;2022-11-15T04:55:58;98980.28;;;7.85;100.00
76257;BME280;65074;50.436;8.672;2022-11-15T04:58:42;98981.63;;;7.71;100.00
76257;BME280;65074;50.436;8.672;2022-11-15T05:01:26;98975.94;;;7.68;100.00
76257;BME280;65074;50.436;8.672;2022-11-15T05:04:10;98975.84;;;7.63;100.00
76257;BME280;65074;50.436;8.672;2022-11-15T05:07:03;98980.63;;;7.61;100.00
76257;BME280;65074;50.436;8.672;2022-11-15T05:09:50;98976.09;;;7.61;100.00
76257;BME280;65074;50.436;8.672;2022-11-15T05:12:34;98974.72;;;7.59;100.00
76257;BME280;65074;50.436;8.672;2022-11-15T05:15:21;98968.94;;;7.50;100.00
76257;BME280;65074;50.436;8.672;2022-11-15T05:18:05;98970.22;;;7.48;100.00
76257;BME280;65074;50.436;8.672;2022-11-15T05:20:49;98960.22;;;7.43;100.00
76257;BME280;65074;50.436;8.672;2022-11-15T05:23:33;98958.19;;;7.62;100.00
76257;BME280;65074;50.436;8.672;2022-11-15T05:26:17;98958.25;;;7.50;100.00
76257;BME280;65074;50.436;8.672;2022-11-15T05:29:02;98961.50;;;7.41;100.00
76257;BME280;65074;50.436;8.672;2022-11-15T05:31:46;98952.03;;;7.33;100.00
76257;BME280;65074;50.436;8.672;2022-11-15T05:34:30;98950.53;;;7.26;100.00
76257;BME280;65074;50.436;8.672;2022-11-15T05:37:15;98949.28;;;7.16;100.00
76257;BME280;65074;50.436;8.672;2022-11-15T05:39:59;98943.91;;;7.16;100.00
76257;BME280;65074;50.436;8.672;2022-11-15T05:42:46;98944.16;;;7.15;100.00
76257;BME280;65074;50.436;8.672;2022-11-15T05:45:31;98940.09;;;7.12;100.00
76257;BME280;65074;50.436;8.672;2022-11-15T05:48:17;98944.88;;;7.10;100.00
76257;BME280;65074;50.436;8.672;2022-11-15T05:51:02;98934.41;;;7.09;100.00
76257;BME280;65074;50.436;8.672;2022-11-15T05:53:48;98934.50;;;7.14;100.00
76257;BME280;65074;50.436;8.672;2022-11-15T05:56:32;98936.19;;;7.03;100.00
76257;BME280;65074;50.436;8.672;2022-11-15T05:59:16;98931.66;;;6.92;100.00
76257;BME280;65074;50.436;8.672;2022-11-15T06:02:04;98936.59;;;6.84;100.00
76257;BME280;65074;50.436;8.672;2022-11-15T06:04:48;98941.22;;;6.88;100.00
76257;BME280;65074;50.436;8.672;2022-11-15T06:07:32;98947.72;;;6.92;100.00
76257;BME280;65074;50.436;8.672;2022-11-15T06:10:16;98952.25;;;6.92;100.00
76257;BME280;65074;50.436;8.672;2022-11-15T06:13:02;98952.69;;;6.89;100.00
76257;BME280;65074;50.436;8.672;2022-11-15T06:15:46;98958.88;;;6.89;100.00
76257;BME280;65074;50.436;8.672;2022-11-15T06:18:33;98956.75;;;7.03;100.00
76257;BME280;65074;50.436;8.672;2022-11-15T06:21:20;98961.97;;;7.09;100.00
76257;BME280;65074;50.436;8.672;2022-11-15T06:24:04;98969.94;;;7.21;100.00
76257;BME280;65074;50.436;8.672;2022-11-15T06:26:52;98968.41;;;7.37;100.00
76257;BME280;65074;50.436;8.672;2022-11-15T06:29:36;98970.66;;;7.56;100.00
76257;BME280;65074;50.436;8.672;2022-11-15T06:32:20;98971.56;;;7.62;100.00
76257;BME280;65074;50.436;8.672;2022-11-15T06:35:04;98970.47;;;7.74;100.00
76257;BME280;65074;50.436;8.672;2022-11-15T06:37:48;98968.09;;;7.78;100.00
76257;BME280;65074;50.436;8.672;2022-11-15T06:40:34;98980.28;;;7.85;100.00
76257;BME280;65074;50.436;8.672;2022-11-15T06:43:19;98976.66;;;7.92;100.00
76257;BME280;65074;50.436;8.672;2022-11-15T06:46:04;98981.63;;;8.00;100.00
76257;BME280;65074;50.436;8.672;2022-11-15T06:48:51;98977.88;;;8.01;100.00
76257;BME280;65074;50.436;8.672;2022-11-15T06:51:35;98975.19;;;8.17;100.00
76257;BME280;65074;50.436;8.672;2022-11-15T06:54:19;98972.84;;;8.21;100.00
76257;BME280;65074;50.436;8.672;2022-11-15T06:57:04;98982.09;;;8.13;100.00
76257;BME280;65074;50.436;8.672;2022-11-15T06:59:48;98981.84;;;8.15;100.00
76257;BME280;65074;50.436;8.672;2022-11-15T07:02:32;98974.41;;;8.17;100.00
76257;BME280;65074;50.436;8.672;2022-11-15T07:05:16;98973.63;;;8.33;100.00
76257;BME280;65074;50.436;8.672;2022-11-15T07:08:00;98964.53;;;8.34;100.00
76257;BME280;65074;50.436;8.672;2022-11-15T07:10:44;98964.63;;;8.39;100.00
76257;BME280;65074;50.436;8.672;2022-11-15T07:13:29;98961.03;;;8.33;100.00
76257;BME280;65074;50.436;8.672;2022-11-15T07:16:16;98952.91;;;8.28;100.00
76257;BME280;65074;50.436;8.672;2022-11-15T07:19:03;98961.88;;;8.22;100.00
76257;BME280;65074;50.436;8.672;2022-11-15T07:21:47;98964.25;;;8.19;100.00
76257;BME280;65074;50.436;8.672;2022-11-15T07:24:31;98970.34;;;8.14;100.00
76257;BME280;65074;50.436;8.672;2022-11-15T07:27:15;98982.84;;;8.09;100.00
76257;BME280;65074;50.436;8.672;2022-11-15T07:30:03;98985.69;;;8.02;100.00
76257;BME280;65074;50.436;8.672;2022-11-15T07:32:47;98986.47;;;8.03;100.00
76257;BME280;65074;50.436;8.672;2022-11-15T07:35:34;98986.66;;;8.13;100.00
76257;BME280;65074;50.436;8.672;2022-11-15T07:38:18;98982.84;;;8.25;100.00
76257;BME280;65074;50.436;8.672;2022-11-15T07:41:04;98976.13;;;8.39;100.00
76257;BME280;65074;50.436;8.672;2022-11-15T07:43:53;98975.22;;;8.50;100.00
76257;BME280;65074;50.436;8.672;2022-11-15T07:46:37;98978.81;;;8.56;100.00
76257;BME280;65074;50.436;8.672;2022-11-15T07:49:21;98981.78;;;8.60;100.00
76257;BME280;65074;50.436;8.672;2022-11-15T07:52:05;98982.50;;;8.72;100.00
76257;BME280;65074;50.436;8.672;2022-11-15T07:54:49;98985.91;;;8.84;100.00
76257;BME280;65074;50.436;8.672;2022-11-15T07:57:33;98986.34;;;8.97;100.00
76257;BME280;65074;50.436;8.672;2022-11-15T08:00:17;98980.81;;;9.04;100.00
76257;BME280;65074;50.436;8.672;2022-11-15T08:05:51;98988.06;;;9.25;99.73
76257;BME280;65074;50.436;8.672;2022-11-15T08:08:37;98986.44;;;9.24;99.71
76257;BME280;65074;50.436;8.672;2022-11-15T08:11:21;98982.75;;;9.30;98.88
76257;BME280;65074;50.436;8.672;2022-11-15T08:14:05;98977.44;;;9.35;99.03
76257;BME280;65074;50.436;8.672;2022-11-15T08:16:49;98974.22;;;9.33;100.00
76257;BME280;65074;50.436;8.672;2022-11-15T08:19:33;98971.28;;;9.35;99.55
76257;BME280;65074;50.436;8.672;2022-11-15T08:22:17;98966.44;;;9.37;100.00
76257;BME280;65074;50.436;8.672;2022-11-15T08:25:01;98970.88;;;9.48;98.47
76257;BME280;65074;50.436;8.672;2022-11-15T08:27:51;98979.34;;;9.61;97.43
76257;BME280;65074;50.436;8.672;2022-11-15T08:30:37;98976.66;;;9.61;98.95
76257;BME280;65074;50.436;8.672;2022-11-15T08:33:21;98972.50;;;9.75;97.81
76257;BME280;65074;50.436;8.672;2022-11-15T08:36:13;98963.66;;;9.75;97.86
76257;BME280;65074;50.436;8.672;2022-11-15T08:38:57;98966.84;;;9.72;97.88
76257;BME280;65074;50.436;8.672;2022-11-15T08:41:41;98963.84;;;9.68;97.69
76257;BME280;65074;50.436;8.672;2022-11-15T08:44:25;98967.94;;;9.76;97.45
76257;BME280;65074;50.436;8.672;2022-11-15T08:47:13;98965.88;;;9.83;97.30
76257;BME280;65074;50.436;8.672;2022-11-15T08:49:57;98970.53;;;9.93;97.27
76257;BME280;65074;50.436;8.672;2022-11-15T08:52:41;98960.84;;;9.92;97.55
76257;BME280;65074;50.436;8.672;2022-11-15T08:55:28;98963.59;;;9.97;97.15
76257;BME280;65074;50.436;8.672;2022-11-15T08:58:12;98972.53;;;10.02;96.97
76257;BME280;65074;50.436;8.672;2022-11-15T09:00:56;98963.69;;;10.07;97.13
76257;BME280;65074;50.436;8.672;2022-11-15T09:03:40;98943.63;;;10.14;97.05
76257;BME280;65074;50.436;8.672;2022-11-15T09:06:24;98948.84;;;10.31;97.19
76257;BME280;65074;50.436;8.672;2022-11-15T09:09:08;98953.38;;;10.62;95.86
76257;BME280;65074;50.436;8.672;2022-11-15T09:11:52;98951.81;;;10.71;95.92
76257;BME280;65074;50.436;8.672;2022-11-15T09:14:36;98948.63;;;10.79;96.22
76257;BME280;65074;50.436;8.672;2022-11-15T09:17:20;98949.19;;;10.86;96.11
76257;BME280;65074;50.436;8.672;2022-11-15T09:20:04;98950.00;;;10.87;95.40
76257;BME280;65074;50.436;8.672;2022-11-15T09:22:48;98946.06;;;11.04;94.77
76257;BME280;65074;50.436;8.672;2022-11-15T09:25:32;98947.72;;;11.10;94.68
76257;BME280;65074;50.436;8.672;2022-11-15T09:28:16;98946.06;;;11.04;94.54
76257;BME280;65074;50.436;8.672;2022-11-15T09:31:03;98951.94;;;10.96;94.85
76257;BME280;65074;50.436;8.672;2022-11-15T09:33:47;98934.66;;;10.82;95.07
76257;BME280;65074;50.436;8.672;2022-11-15T09:36:31;98950.34;;;10.95;95.16
76257;BME280;65074;50.436;8.672;2022-11-15T09:39:15;98945.41;;;10.82;95.68
76257;BME280;65074;50.436;8.672;2022-11-15T09:42:09;98946.84;;;10.95;95.99
76257;BME280;65074;50.436;8.672;2022-11-15T09:45:06;98941.22;;;11.06;95.84
76257;BME280;65074;50.436;8.672;2022-11-15T09:48:11;98942.94;;;11.23;94.46
76257;BME280;65074;50.436;8.672;2022-11-15T09:50:59;98937.28;;;11.29;94.21
76257;BME280;65074;50.436;8.672;2022-11-15T09:53:25;98935.97;;;11.37;93.75
76257;BME280;65074;50.436;8.672;2022-11-15T09:56:00;98931.22;;;11.69;92.29
76257;BME280;65074;50.436;8.672;2022-11-15T10:04:13;98917.22;;;12.17;90.84
76257;BME280;65074;50.436;8.672;2022-11-15T10:07:10;98918.56;;;12.30;90.17
76257;BME280;65074;50.436;8.672;2022-11-15T10:09:51;98916.16;;;12.23;89.74
76257;BME280;65074;50.436;8.672;2022-11-15T10:12:18;98912.13;;;12.31;89.55
76257;BME280;65074;50.436;8.672;2022-11-15T10:14:45;98902.16;;;12.16;90.41
76257;BME280;65074;50.436;8.672;2022-11-15T10:17:46;98901.88;;;12.23;90.00
76257;BME280;65074;50.436;8.672;2022-11-15T10:20:17;98893.53;;;12.24;90.18
76257;BME280;65074;50.436;8.672;2022-11-15T10:22:47;98886.75;;;12.32;90.03
76257;BME280;65074;50.436;8.672;2022-11-15T10:27:43;98884.59;;;12.39;90.32
76257;BME280;65074;50.436;8.672;2022-11-15T10:30:12;98881.56;;;12.61;89.49
76257;BME280;65074;50.436;8.672;2022-11-15T10:32:39;98882.09;;;12.63;89.14
76257;BME280;65074;50.436;8.672;2022-11-15T10:37:43;98879.69;;;12.61;89.58
76257;BME280;65074;50.436;8.672;2022-11-15T10:40:35;98882.28;;;12.86;88.04
76257;BME280;65074;50.436;8.672;2022-11-15T10:43:21;98874.97;;;12.92;87.97
76257;BME280;65074;50.436;8.672;2022-11-15T10:45:51;98870.09;;;12.94;87.79
76257;BME280;65074;50.436;8.672;2022-11-15T10:50:44;98867.38;;;13.04;87.70
76257;BME280;65074;50.436;8.672;2022-11-15T10:53:26;98866.31;;;13.00;87.90
76257;BME280;65074;50.436;8.672;2022-11-15T10:56:00;98864.97;;;13.08;87.39
76257;BME280;65074;50.436;8.672;2022-11-15T10:58:41;98857.09;;;13.11;87.74
76257;BME280;65074;50.436;8.672;2022-11-15T11:01:17;98848.53;;;12.89;89.41
76257;BME280;65074;50.436;8.672;2022-11-15T11:03:45;98838.38;;;13.30;88.10
76257;BME280;65074;50.436;8.672;2022-11-15T11:06:22;98840.66;;;13.51;87.58
76257;BME280;65074;50.436;8.672;2022-11-15T11:09:04;98832.25;;;13.53;87.32
76257;BME280;65074;50.436;8.672;2022-11-15T11:11:48;98823.69;;;14.08;86.15
76257;BME280;65074;50.436;8.672;2022-11-15T11:14:21;98819.97;;;14.80;82.66
76257;BME280;65074;50.436;8.672;2022-11-15T11:16:52;98811.09;;;14.75;82.56
76257;BME280;65074;50.436;8.672;2022-11-15T11:19:38;98800.63;;;14.87;81.52
76257;BME280;65074;50.436;8.672;2022-11-15T11:22:36;98810.50;;;14.54;83.52
76257;BME280;65074;50.436;8.672;2022-11-15T11:25:16;98803.34;;;14.16;84.60
76257;BME280;65074;50.436;8.672;2022-11-15T11:33:32;98779.78;;;14.45;83.57
76257;BME280;65074;50.436;8.672;2022-11-15T11:42:29;98777.31;;;13.29;86.83
76257;BME280;65074;50.436;8.672;2022-11-15T11:45:00;98761.44;;;13.22;87.05
76257;BME280;65074;50.436;8.672;2022-11-15T11:47:32;98760.44;;;13.13;87.70
76257;BME280;65074;50.436;8.672;2022-11-15T11:50:10;98753.84;;;13.24;87.25
76257;BME280;65074;50.436;8.672;2022-11-15T11:52:44;98756.84;;;13.23;87.34
76257;BME280;65074;50.436;8.672;2022-11-15T11:58:17;98767.41;;;13.19;87.57
76257;BME280;65074;50.436;8.672;2022-11-15T12:00:56;98772.56;;;13.16;88.46
76257;BME280;65074;50.436;8.672;2022-11-15T12:03:52;98756.63;;;13.14;87.72
76257;BME280;65074;50.436;8.672;2022-11-15T12:14:46;98756.13;;;13.02;88.52
76257;BME280;65074;50.436;8.672;2022-11-15T12:17:15;98759.97;;;12.96;88.54
76257;BME280;65074;50.436;8.672;2022-11-15T12:19:41;98751.31;;;12.94;88.19
76257;BME280;65074;50.436;8.672;2022-11-15T12:22:19;98747.28;;;12.91;88.90
76257;BME280;65074;50.436;8.672;2022-11-15T12:25:02;98754.16;;;12.74;88.94
76257;BME280;65074;50.436;8.672;2022-11-15T12:27:49;98754.88;;;12.84;88.55
76257;BME280;65074;50.436;8.672;2022-11-15T12:30:21;98747.06;;;12.88;88.58
76257;BME280;65074;50.436;8.672;2022-11-15T12:32:59;98741.94;;;12.81;88.76
76257;BME280;65074;50.436;8.672;2022-11-15T12:35:30;98738.47;;;12.81;88.83
76257;BME280;65074;50.436;8.672;2022-11-15T12:37:58;98734.47;;;12.73;88.94
76257;BME280;65074;50.436;8.672;2022-11-15T12:40:30;98729.53;;;12.85;88.68
76257;BME280;65074;50.436;8.672;2022-11-15T12:45:36;98729.19;;;12.92;88.98
76257;BME280;65074;50.436;8.672;2022-11-15T12:53:27;98730.28;;;12.96;88.22
76257;BME280;65074;50.436;8.672;2022-11-15T12:58:56;98728.91;;;12.98;88.40
76257;BME280;65074;50.436;8.672;2022-11-15T13:04:23;98716.00;;;12.90;89.04
76257;BME280;65074;50.436;8.672;2022-11-15T13:07:00;98695.22;;;12.91;89.27
76257;BME280;65074;50.436;8.672;2022-11-15T13:12:11;98691.66;;;12.95;89.18
76257;BME280;65074;50.436;8.672;2022-11-15T13:17:44;98702.03;;;12.78;90.09
76257;BME280;65074;50.436;8.672;2022-11-15T13:28:22;98683.28;;;12.97;89.44
76257;BME280;65074;50.436;8.672;2022-11-15T13:30:58;98682.47;;;12.96;90.00
76257;BME280;65074;50.436;8.672;2022-11-15T13:33:31;98673.09;;;12.84;89.73
76257;BME280;65074;50.436;8.672;2022-11-15T13:35:59;98665.38;;;12.72;90.05
76257;BME280;65074;50.436;8.672;2022-11-15T13:38:32;98667.50;;;12.75;90.02
76257;BME280;65074;50.436;8.672;2022-11-15T13:40:59;98660.28;;;12.66;90.49
76257;BME280;65074;50.436;8.672;2022-11-15T13:43:27;98658.66;;;12.65;90.47
76257;BME280;65074;50.436;8.672;2022-11-15T13:48:39;98668.03;;;12.77;90.54
76257;BME280;65074;50.436;8.672;2022-11-15T13:51:25;98667.53;;;12.70;90.97
76257;BME280;65074;50.436;8.672;2022-11-15T13:54:06;98664.72;;;12.90;90.01
76257;BME280;65074;50.436;8.672;2022-11-15T13:56:33;98657.19;;;12.82;90.45
76257;BME280;65074;50.436;8.672;2022-11-15T13:59:07;98648.19;;;12.58;91.14
76257;BME280;65074;50.436;8.672;2022-11-15T14:01:33;98648.44;;;12.62;90.76
76257;BME280;65074;50.436;8.672;2022-11-15T14:04:00;98649.25;;;12.62;91.03
76257;BME280;65074;50.436;8.672;2022-11-15T14:06:28;98643.06;;;12.57;91.69
76257;BME280;65074;50.436;8.672;2022-11-15T14:09:02;98645.38;;;12.78;90.94
76257;BME280;65074;50.436;8.672;2022-11-15T14:11:32;98636.75;;;12.76;90.94
76257;BME280;65074;50.436;8.672;2022-11-15T14:16:51;98627.34;;;12.69;91.34
76257;BME280;65074;50.436;8.672;2022-11-15T14:22:08;98632.16;;;12.72;91.53
76257;BME280;65074;50.436;8.672;2022-11-15T14:24:34;98627.31;;;12.74;91.89
76257;BME280;65074;50.436;8.672;2022-11-15T14:27:25;98627.34;;;12.69;92.24
76257;BME280;65074;50.436;8.672;2022-11-15T14:29:51;98625.75;;;12.63;92.17
76257;BME280;65074;50.436;8.672;2022-11-15T14:32:20;98615.06;;;12.48;92.71
76257;BME280;65074;50.436;8.672;2022-11-15T14:35:21;98608.66;;;12.38;93.22
76257;BME280;65074;50.436;8.672;2022-11-15T14:37:39;98604.88;;;12.39;93.13
76257;BME280;65074;50.436;8.672;2022-11-15T14:40:05;98601.97;;;12.31;93.83
76257;BME280;65074;50.436;8.672;2022-11-15T14:42:31;98599.00;;;12.27;94.54
76257;BME280;65074;50.436;8.672;2022-11-15T14:44:57;98598.25;;;12.22;94.78
76257;BME280;65074;50.436;8.672;2022-11-15T14:47:22;98600.13;;;12.21;94.94
76257;BME280;65074;50.436;8.672;2022-11-15T14:49:48;98598.69;;;12.39;93.87
76257;BME280;65074;50.436;8.672;2022-11-15T14:54:44;98584.25;;;12.15;94.82
76257;BME280;65074;50.436;8.672;2022-11-15T14:57:10;98579.72;;;12.05;95.42
76257;BME280;65074;50.436;8.672;2022-11-15T14:59:35;98579.66;;;12.15;95.21
76257;BME280;65074;50.436;8.672;2022-11-15T15:02:00;98565.34;;;12.20;94.42
76257;BME280;65074;50.436;8.672;2022-11-15T15:04:26;98574.09;;;12.02;95.30
76257;BME280;65074;50.436;8.672;2022-11-15T15:06:51;98570.28;;;12.03;95.47
76257;BME280;65074;50.436;8.672;2022-11-15T15:09:16;98551.22;;;11.94;95.78
76257;BME280;65074;50.436;8.672;2022-11-15T15:11:42;98553.66;;;11.91;96.02
76257;BME280;65074;50.436;8.672;2022-11-15T15:14:08;98553.94;;;11.89;96.20
76257;BME280;65074;50.436;8.672;2022-11-15T15:16:33;98546.72;;;11.80;96.75
76257;BME280;65074;50.436;8.672;2022-11-15T15:18:58;98545.88;;;11.84;96.50
76257;BME280;65074;50.436;8.672;2022-11-15T15:21:26;98538.63;;;11.80;96.51
76257;BME280;65074;50.436;8.672;2022-11-15T15:23:56;98541.88;;;11.77;96.49
76257;BME280;65074;50.436;8.672;2022-11-15T15:26:23;98535.13;;;11.79;96.40
76257;BME280;65074;50.436;8.672;2022-11-15T15:28:49;98528.41;;;11.77;96.96
76257;BME280;65074;50.436;8.672;2022-11-15T15:31:16;98519.53;;;11.71;96.83
76257;BME280;65074;50.436;8.672;2022-11-15T15:33:41;98521.69;;;11.69;96.97
76257;BME280;65074;50.436;8.672;2022-11-15T15:36:14;98517.63;;;11.66;97.54
76257;BME280;65074;50.436;8.672;2022-11-15T15:38:41;98514.16;;;11.61;97.80
76257;BME280;65074;50.436;8.672;2022-11-15T15:41:11;98502.59;;;11.55;97.75
76257;BME280;65074;50.436;8.672;2022-11-15T15:43:36;98507.22;;;11.50;98.57
76257;BME280;65074;50.436;8.672;2022-11-15T15:46:09;98509.13;;;11.44;98.67
76257;BME280;65074;50.436;8.672;2022-11-15T15:48:35;98506.44;;;11.44;98.77
76257;BME280;65074;50.436;8.672;2022-11-15T15:51:02;98507.50;;;11.43;98.79
76257;BME280;65074;50.436;8.672;2022-11-15T15:53:27;98502.91;;;11.44;98.95
76257;BME280;65074;50.436;8.672;2022-11-15T15:55:53;98505.88;;;11.47;98.53